Maris — 5BVJ4 — position and weather

sailwx.info

Track history (hours):
 
Tides and Currents Weather Stations Pressure Air Temp Water Temp Dewpoint Dewpoint Depression Visibility Wind Speed Wind Dir Waves Ship Positions

Maris

Last reported at 2017-Oct-14 22:35 UTC. Time now 2017-Oct-19 02:03 UTC.
Position N 36°54' W 012°44'.

Length 101 m; draft 5.7 m.

Type: Ship (hazmat cat A). MMSI: 212833000.

Date/timePositionNaut miles runAvg speedWind from/ knotsBaromVisibWave heightAir tempDewpointWater temp
2017-Oct-14 22:35N 36°54' W 012°44'313.5
2017-Oct-14 22:22N 36°56' W 012°42'513.4
2017-Oct-14 22:00N 37°00' W 012°39'713.5
2017-Oct-14 21:28N 37°06' W 012°33'713.4
2017-Oct-14 20:57N 37°12' W 012°28'713.3
2017-Oct-14 20:28N 37°17' W 012°23'713.4
2017-Oct-14 19:58N 37°22' W 012°18'713.4
2017-Oct-14 19:28N 37°27' W 012°13'613.7
2017-Oct-14 19:00N 37°33' W 012°08'713.8
2017-Oct-14 18:30N 37°38' W 012°03'713.7
2017-Oct-14 18:00N 37°44' W 011°58'713.8
2017-Oct-14 17:30N 37°49' W 011°53'713.6
2017-Oct-14 17:00N 37°55' W 011°48'611.6
2017-Oct-14 16:30N 37°59' W 011°43'611.3
2017-Oct-14 16:00N 38°04' W 011°39'611.3
2017-Oct-14 15:30N 38°08' W 011°34'611.2
2017-Oct-14 15:00N 38°13' W 011°30'611.2
2017-Oct-14 14:30N 38°17' W 011°26'511.0
2017-Oct-14 14:00N 38°22' W 011°22'611.1
2017-Oct-14 13:30N 38°27' W 011°18'611.2
2017-Oct-14 13:00N 38°31' W 011°14'611.2
2017-Oct-14 12:30N 38°36' W 011°11'611.2
2017-Oct-14 12:00N 38°41' W 011°07'611.0
2017-Oct-14 11:30N 38°46' W 011°03'611.5
2017-Oct-14 11:00N 38°50' W 010°59'811.6
2017-Oct-14 10:21N 38°57' W 010°54'411.7
2017-Oct-14 10:00N 38°59' W 010°50'611.4
2017-Oct-14 09:29N 39°03' W 010°44'611.6
2017-Oct-14 09:00N 39°08' W 010°40'611.7
2017-Oct-14 08:30N 39°12' W 010°36'611.9
2017-Oct-14 08:00N 39°17' W 010°31'611.8
2017-Oct-14 07:29N 39°22' W 010°26'912.1
2017-Oct-14 06:42N 39°29' W 010°19'212.0
2017-Oct-14 06:30N 39°31' W 010°17'612.0
2017-Oct-14 05:59N 39°36' W 010°12'910.0
2017-Oct-14 05:05N 39°44' W 010°06'1 9.5
2017-Oct-14 05:00N 39°44' W 010°05'812.3
2017-Oct-14 04:23N 39°50' W 009°59'1112.1
2017-Oct-14 03:28N 39°59' W 009°51'812.6
2017-Oct-14 02:50N 40°05' W 009°44'1012.5
2017-Oct-14 02:02N 40°13' W 009°37'012.3
2017-Oct-14 02:00N 40°14' W 009°37'6412.5
2017-Oct-13 20:54N 41°05' W 008°47'512.1
2017-Oct-13 20:30N 41°09' W 008°43'2 4.3
2017-Oct-13 20:00N 41°11' W 008°42'0 0.0
2017-Oct-13 19:30N 41°11' W 008°42'0 0.0
2017-Oct-13 19:00N 41°11' W 008°42'0 0.0
2017-Oct-13 18:30N 41°11' W 008°42'0 0.0
2017-Oct-13 18:00N 41°11' W 008°42'0 0.0
2017-Oct-13 17:30N 41°11' W 008°42'0 0.0
2017-Oct-13 17:00N 41°11' W 008°42'0 0.0
2017-Oct-13 16:30N 41°11' W 008°42'0 0.0
2017-Oct-13 16:00N 41°11' W 008°42'0 0.0
2017-Oct-13 15:30N 41°11' W 008°42'0 0.0
2017-Oct-13 15:00N 41°11' W 008°42'0 0.0
2017-Oct-13 14:30N 41°11' W 008°42'0 0.0
2017-Oct-13 14:00N 41°11' W 008°42'0 0.0
2017-Oct-13 13:30N 41°11' W 008°42'0 0.0
2017-Oct-13 13:00N 41°11' W 008°42'0 0.0
2017-Oct-13 12:30N 41°11' W 008°42'0 0.0
2017-Oct-13 12:00N 41°11' W 008°42'0 0.0
2017-Oct-13 11:30N 41°11' W 008°42'0 0.0
2017-Oct-13 11:00N 41°11' W 008°42'0 0.0
2017-Oct-13 10:30N 41°11' W 008°42'0 0.0
2017-Oct-13 10:00N 41°11' W 008°42'0 0.0
2017-Oct-13 09:30N 41°11' W 008°42'0 0.0
2017-Oct-13 09:00N 41°11' W 008°42'0 0.0
2017-Oct-13 08:30N 41°11' W 008°42'0 0.0
2017-Oct-13 08:00N 41°11' W 008°42'0 0.0
2017-Oct-13 07:30N 41°11' W 008°42'0 0.0
2017-Oct-13 07:00N 41°11' W 008°42'0 0.8
2017-Oct-13 06:31N 41°11' W 008°42'2 3.6
2017-Oct-13 06:00N 41°10' W 008°45'2 4.9
2017-Oct-13 05:30N 41°08' W 008°44'  
2017-Oct-09 11:18N 36°02' W 013°32'611.4
2017-Oct-09 10:44N 36°08' W 013°27'313.3
2017-Oct-09 10:30N 36°10' W 013°25'714.4
2017-Oct-09 10:00N 36°16' W 013°20'714.3
2017-Oct-09 09:30N 36°21' W 013°14'714.3
2017-Oct-09 09:00N 36°27' W 013°09'714.5
2017-Oct-09 08:30N 36°33' W 013°04'714.6
2017-Oct-09 08:00N 36°39' W 012°59'814.4
2017-Oct-09 07:28N 36°45' W 012°53'613.7
2017-Oct-09 07:00N 36°50' W 012°48'612.7
2017-Oct-09 06:30N 36°55' W 012°43'612.8
2017-Oct-09 05:59N 37°00' W 012°38'612.9
2017-Oct-09 05:30N 37°05' W 012°33'712.9
2017-Oct-09 05:00N 37°11' W 012°29'713.1
2017-Oct-09 04:30N 37°16' W 012°24'613.2
2017-Oct-09 04:00N 37°21' W 012°19'713.0
2017-Oct-09 03:30N 37°27' W 012°14'713.1
2017-Oct-09 03:00N 37°32' W 012°10'713.0
2017-Oct-09 02:30N 37°37' W 012°05'612.7
2017-Oct-09 02:01N 37°42' W 011°60'612.6
2017-Oct-09 01:31N 37°47' W 011°55'612.6
2017-Oct-09 01:00N 37°52' W 011°51'612.7
2017-Oct-09 00:30N 37°58' W 011°46'613.0
2017-Oct-09 00:00N 38°03' W 011°41'612.9
2017-Oct-08 23:30N 38°08' W 011°36'713.1
2017-Oct-08 23:00N 38°13' W 011°31'612.6
2017-Oct-08 22:31N 38°18' W 011°26'612.7
2017-Oct-08 22:00N 38°23' W 011°22'612.8
2017-Oct-08 21:30N 38°29' W 011°17'612.6
2017-Oct-08 21:00N 38°34' W 011°12'612.5
2017-Oct-08 20:30N 38°39' W 011°07'612.4
2017-Oct-08 19:59N 38°44' W 011°02'612.9
2017-Oct-08 19:30N 38°49' W 010°57'612.9
2017-Oct-08 19:00N 38°54' W 010°52'713.0
2017-Oct-08 18:30N 38°59' W 010°48'612.9
2017-Oct-08 18:00N 39°04' W 010°43'612.8
2017-Oct-08 17:31N 39°09' W 010°38'612.8
2017-Oct-08 17:00N 39°15' W 010°33'713.1
2017-Oct-08 16:30N 39°20' W 010°28'612.6
2017-Oct-08 16:00N 39°25' W 010°23'612.4
2017-Oct-08 15:30N 39°30' W 010°19'612.4
2017-Oct-08 15:00N 39°35' W 010°14'712.9
2017-Oct-08 14:30N 39°40' W 010°09'613.0
2017-Oct-08 14:00N 39°45' W 010°03'612.9
2017-Oct-08 13:30N 39°51' W 009°58'612.9
2017-Oct-08 13:00N 39°56' W 009°54'612.8
2017-Oct-08 12:30N 40°01' W 009°49'612.7
2017-Oct-08 12:00N 40°06' W 009°44'712.7
2017-Oct-08 11:29N 40°12' W 009°39'6712.8
2017-Oct-08 06:17N 41°05' W 008°47'312.7
2017-Oct-08 06:00N 41°08' W 008°44'3 6.5
2017-Oct-08 05:30N 41°11' W 008°42'0 0.0
2017-Oct-08 05:00N 41°11' W 008°42'0 0.0
2017-Oct-08 04:30N 41°11' W 008°42'0 0.0
2017-Oct-08 04:00N 41°11' W 008°42'0 0.0
2017-Oct-08 03:30N 41°11' W 008°42'0 0.0
2017-Oct-08 03:00N 41°11' W 008°42'0 0.0
2017-Oct-08 02:30N 41°11' W 008°42'0 0.0
2017-Oct-08 02:00N 41°11' W 008°42'0 0.0
2017-Oct-08 01:30N 41°11' W 008°42'0 0.0
2017-Oct-08 01:00N 41°11' W 008°42'0 0.0
2017-Oct-08 00:30N 41°11' W 008°42'0 0.0
2017-Oct-08 00:00N 41°11' W 008°42'0 0.0
2017-Oct-07 23:30N 41°11' W 008°42'0 0.0
2017-Oct-07 23:00N 41°11' W 008°42'0 0.0
2017-Oct-07 22:30N 41°11' W 008°42'0 0.0
2017-Oct-07 22:00N 41°11' W 008°42'0 0.0
2017-Oct-07 21:30N 41°11' W 008°42'0 0.0
2017-Oct-07 21:00N 41°11' W 008°42'0 0.0
2017-Oct-07 20:30N 41°11' W 008°42'0 0.0
2017-Oct-07 20:00N 41°11' W 008°42'0 0.0
2017-Oct-07 19:30N 41°11' W 008°42'0 0.0
2017-Oct-07 19:00N 41°11' W 008°42'0 0.0
2017-Oct-07 18:30N 41°11' W 008°42'0 0.0
2017-Oct-07 18:00N 41°11' W 008°42'0 0.0
2017-Oct-07 17:30N 41°11' W 008°42'0 0.0
2017-Oct-07 17:00N 41°11' W 008°42'0 0.0
2017-Oct-07 16:29N 41°11' W 008°42'0 0.0
2017-Oct-07 15:59N 41°11' W 008°42'0 0.0
2017-Oct-07 15:29N 41°11' W 008°42'0 0.0
2017-Oct-07 14:59N 41°11' W 008°42'0 0.0
2017-Oct-07 14:29N 41°11' W 008°42'0 0.0
2017-Oct-07 13:59N 41°11' W 008°42'0 0.0
2017-Oct-07 13:29N 41°11' W 008°42'0 0.0
2017-Oct-07 12:59N 41°11' W 008°42'0 0.0
2017-Oct-07 12:29N 41°11' W 008°42'0 0.0
2017-Oct-07 11:59N 41°11' W 008°42'0 0.0
2017-Oct-07 11:29N 41°11' W 008°42'0 0.0
2017-Oct-07 10:59N 41°11' W 008°42'0 0.0
2017-Oct-07 10:29N 41°11' W 008°42'0 0.0
2017-Oct-07 09:59N 41°11' W 008°42'0 0.0
2017-Oct-07 09:29N 41°11' W 008°42'0 0.0
2017-Oct-07 08:59N 41°11' W 008°42'0 0.0
2017-Oct-07 08:29N 41°11' W 008°42'0 0.0
2017-Oct-07 07:59N 41°11' W 008°42'0 0.0
2017-Oct-07 07:29N 41°11' W 008°42'0 0.0
2017-Oct-07 06:59N 41°11' W 008°42'0 0.4
2017-Oct-07 06:30N 41°11' W 008°42'0 0.1
2017-Oct-07 05:58N 41°11' W 008°42'0 0.0
2017-Oct-07 05:28N 41°11' W 008°42'0 0.0
2017-Oct-07 04:58N 41°11' W 008°42'0 0.0
2017-Oct-07 04:28N 41°11' W 008°42'0 0.0
2017-Oct-07 03:58N 41°11' W 008°42'0 0.0
2017-Oct-07 03:25N 41°11' W 008°42'0 0.0
2017-Oct-07 02:58N 41°11' W 008°42'0 0.0
2017-Oct-07 02:25N 41°11' W 008°42'0 0.0
2017-Oct-07 01:58N 41°11' W 008°42'0 0.0
2017-Oct-07 01:28N 41°11' W 008°42'0 0.0
2017-Oct-07 00:58N 41°11' W 008°42'0 0.0
2017-Oct-07 00:28N 41°11' W 008°42'0 0.0
2017-Oct-06 23:58N 41°11' W 008°42'0 0.0
2017-Oct-06 23:28N 41°11' W 008°42'0 0.0
2017-Oct-06 22:58N 41°11' W 008°42'0 0.0
2017-Oct-06 22:28N 41°11' W 008°42'0 0.0
2017-Oct-06 21:58N 41°11' W 008°42'0 0.0
2017-Oct-06 21:25N 41°11' W 008°42'0 0.0
2017-Oct-06 20:58N 41°11' W 008°42'0 0.0
2017-Oct-06 20:28N 41°11' W 008°42'0 0.0
2017-Oct-06 19:58N 41°11' W 008°42'0 0.0
2017-Oct-06 19:28N 41°11' W 008°42'0 0.0
2017-Oct-06 18:58N 41°11' W 008°42'0 0.0
2017-Oct-06 18:22N 41°11' W 008°42'0 0.0
2017-Oct-06 17:59N 41°11' W 008°42'1 2.3
2017-Oct-06 17:30N 41°10' W 008°42'4 5.0
2017-Oct-06 16:41N 41°07' W 008°46'0 0.0
2017-Oct-06 16:17N 41°07' W 008°46'0 0.1
2017-Oct-06 15:50N 41°07' W 008°46'0 0.0
2017-Oct-06 15:14N 41°07' W 008°46'0 0.1
2017-Oct-06 13:38N 41°07' W 008°46'0 0.0
2017-Oct-06 13:29N 41°07' W 008°46'0 0.0
2017-Oct-06 12:59N 41°07' W 008°46'0 0.0
2017-Oct-06 11:28N 41°07' W 008°46'0 0.0
2017-Oct-06 10:55N 41°07' W 008°46'0 0.0
2017-Oct-06 07:58N 41°07' W 008°46'0 0.2
2017-Oct-06 07:25N 41°07' W 008°46'4 7.7
2017-Oct-06 06:55N 41°04' W 008°49'1111.2
2017-Oct-06 05:54N 40°54' W 008°57'2011.3
2017-Oct-06 04:08N 40°38' W 009°12'311.1
2017-Oct-06 03:54N 40°36' W 009°14'2111.5
2017-Oct-06 02:05N 40°19' W 009°31'111.6
2017-Oct-06 02:00N 40°19' W 009°32'811.6
2017-Oct-06 01:17N 40°12' W 009°38'311.6
2017-Oct-06 01:00N 40°09' W 009°41'911.7
2017-Oct-06 00:16N 40°03' W 009°47'311.5
2017-Oct-06 00:00N 40°00' W 009°50'611.5
2017-Oct-05 23:30N 39°55' W 009°54'611.3
2017-Oct-05 23:00N 39°51' W 009°58'611.8
2017-Oct-05 22:30N 39°46' W 010°03'611.7
2017-Oct-05 21:59N 39°41' W 010°08'611.9
2017-Oct-05 21:30N 39°36' W 010°12'611.6
2017-Oct-05 21:00N 39°32' W 010°16'611.4
2017-Oct-05 20:30N 39°27' W 010°21'611.2
2017-Oct-05 19:59N 39°22' W 010°25'1711.2
2017-Oct-05 18:26N 39°08' W 010°38'511.1
2017-Oct-05 18:00N 39°04' W 010°41'611.2
2017-Oct-05 17:26N 38°59' W 010°47'20312.2
2017-Oct-05 00:49N 36°16' W 013°19'612.4
2017-Oct-05 00:21N 36°12' W 013°24'412.6
2017-Oct-05 00:00N 36°08' W 013°27'612.4
2017-Oct-04 23:30N 36°03' W 013°31'612.0
2017-Oct-04 23:00N 35°58' W 013°36'  
Track history (hours):
 
Tides and Currents Weather Stations Pressure Air Temp Water Temp Dewpoint Dewpoint Depression Visibility Wind Speed Wind Dir Waves Ship Positions

Maris

Last reported at 2017-Oct-14 22:35 UTC. Time now 2017-Oct-19 02:03 UTC.
Position N 36°54' W 012°44'.

Length 101 m; draft 5.7 m.

Type: Ship (hazmat cat A). MMSI: 212833000.

Date/timePositionNaut miles runAvg speedWind from/ knotsBaromVisibWave heightAir tempDewpointWater temp
2017-Oct-14 22:35N 36°54' W 012°44'313.5
2017-Oct-14 22:22N 36°56' W 012°42'513.4
2017-Oct-14 22:00N 37°00' W 012°39'713.5
2017-Oct-14 21:28N 37°06' W 012°33'713.4
2017-Oct-14 20:57N 37°12' W 012°28'713.3
2017-Oct-14 20:28N 37°17' W 012°23'713.4
2017-Oct-14 19:58N 37°22' W 012°18'713.4
2017-Oct-14 19:28N 37°27' W 012°13'613.7
2017-Oct-14 19:00N 37°33' W 012°08'713.8
2017-Oct-14 18:30N 37°38' W 012°03'713.7
2017-Oct-14 18:00N 37°44' W 011°58'713.8
2017-Oct-14 17:30N 37°49' W 011°53'713.6
2017-Oct-14 17:00N 37°55' W 011°48'611.6
2017-Oct-14 16:30N 37°59' W 011°43'611.3
2017-Oct-14 16:00N 38°04' W 011°39'611.3
2017-Oct-14 15:30N 38°08' W 011°34'611.2
2017-Oct-14 15:00N 38°13' W 011°30'611.2
2017-Oct-14 14:30N 38°17' W 011°26'511.0
2017-Oct-14 14:00N 38°22' W 011°22'611.1
2017-Oct-14 13:30N 38°27' W 011°18'611.2
2017-Oct-14 13:00N 38°31' W 011°14'611.2
2017-Oct-14 12:30N 38°36' W 011°11'611.2
2017-Oct-14 12:00N 38°41' W 011°07'611.0
2017-Oct-14 11:30N 38°46' W 011°03'611.5
2017-Oct-14 11:00N 38°50' W 010°59'811.6
2017-Oct-14 10:21N 38°57' W 010°54'411.7
2017-Oct-14 10:00N 38°59' W 010°50'611.4
2017-Oct-14 09:29N 39°03' W 010°44'611.6
2017-Oct-14 09:00N 39°08' W 010°40'611.7
2017-Oct-14 08:30N 39°12' W 010°36'611.9
2017-Oct-14 08:00N 39°17' W 010°31'611.8
2017-Oct-14 07:29N 39°22' W 010°26'912.1
2017-Oct-14 06:42N 39°29' W 010°19'212.0
2017-Oct-14 06:30N 39°31' W 010°17'612.0
2017-Oct-14 05:59N 39°36' W 010°12'910.0
2017-Oct-14 05:05N 39°44' W 010°06'1 9.5
2017-Oct-14 05:00N 39°44' W 010°05'812.3
2017-Oct-14 04:23N 39°50' W 009°59'1112.1
2017-Oct-14 03:28N 39°59' W 009°51'812.6
2017-Oct-14 02:50N 40°05' W 009°44'1012.5
2017-Oct-14 02:02N 40°13' W 009°37'012.3
2017-Oct-14 02:00N 40°14' W 009°37'6412.5
2017-Oct-13 20:54N 41°05' W 008°47'512.1
2017-Oct-13 20:30N 41°09' W 008°43'2 4.3
2017-Oct-13 20:00N 41°11' W 008°42'0 0.0
2017-Oct-13 19:30N 41°11' W 008°42'0 0.0
2017-Oct-13 19:00N 41°11' W 008°42'0 0.0
2017-Oct-13 18:30N 41°11' W 008°42'0 0.0
2017-Oct-13 18:00N 41°11' W 008°42'0 0.0
2017-Oct-13 17:30N 41°11' W 008°42'0 0.0
2017-Oct-13 17:00N 41°11' W 008°42'0 0.0
2017-Oct-13 16:30N 41°11' W 008°42'0 0.0
2017-Oct-13 16:00N 41°11' W 008°42'0 0.0
2017-Oct-13 15:30N 41°11' W 008°42'0 0.0
2017-Oct-13 15:00N 41°11' W 008°42'0 0.0
2017-Oct-13 14:30N 41°11' W 008°42'0 0.0
2017-Oct-13 14:00N 41°11' W 008°42'0 0.0
2017-Oct-13 13:30N 41°11' W 008°42'0 0.0
2017-Oct-13 13:00N 41°11' W 008°42'0 0.0
2017-Oct-13 12:30N 41°11' W 008°42'0 0.0
2017-Oct-13 12:00N 41°11' W 008°42'0 0.0
2017-Oct-13 11:30N 41°11' W 008°42'0 0.0
2017-Oct-13 11:00N 41°11' W 008°42'0 0.0
2017-Oct-13 10:30N 41°11' W 008°42'0 0.0
2017-Oct-13 10:00N 41°11' W 008°42'0 0.0
2017-Oct-13 09:30N 41°11' W 008°42'0 0.0
2017-Oct-13 09:00N 41°11' W 008°42'0 0.0
2017-Oct-13 08:30N 41°11' W 008°42'0 0.0
2017-Oct-13 08:00N 41°11' W 008°42'0 0.0
2017-Oct-13 07:30N 41°11' W 008°42'0 0.0
2017-Oct-13 07:00N 41°11' W 008°42'0 0.8
2017-Oct-13 06:31N 41°11' W 008°42'2 3.6
2017-Oct-13 06:00N 41°10' W 008°45'2 4.9
2017-Oct-13 05:30N 41°08' W 008°44'  
2017-Oct-09 11:18N 36°02' W 013°32'611.4
2017-Oct-09 10:44N 36°08' W 013°27'313.3
2017-Oct-09 10:30N 36°10' W 013°25'714.4
2017-Oct-09 10:00N 36°16' W 013°20'714.3
2017-Oct-09 09:30N 36°21' W 013°14'714.3
2017-Oct-09 09:00N 36°27' W 013°09'714.5
2017-Oct-09 08:30N 36°33' W 013°04'714.6
2017-Oct-09 08:00N 36°39' W 012°59'814.4
2017-Oct-09 07:28N 36°45' W 012°53'613.7
2017-Oct-09 07:00N 36°50' W 012°48'612.7
2017-Oct-09 06:30N 36°55' W 012°43'612.8
2017-Oct-09 05:59N 37°00' W 012°38'612.9
2017-Oct-09 05:30N 37°05' W 012°33'712.9
2017-Oct-09 05:00N 37°11' W 012°29'713.1
2017-Oct-09 04:30N 37°16' W 012°24'613.2
2017-Oct-09 04:00N 37°21' W 012°19'713.0
2017-Oct-09 03:30N 37°27' W 012°14'713.1
2017-Oct-09 03:00N 37°32' W 012°10'713.0
2017-Oct-09 02:30N 37°37' W 012°05'612.7
2017-Oct-09 02:01N 37°42' W 011°60'612.6
2017-Oct-09 01:31N 37°47' W 011°55'612.6
2017-Oct-09 01:00N 37°52' W 011°51'612.7
2017-Oct-09 00:30N 37°58' W 011°46'613.0
2017-Oct-09 00:00N 38°03' W 011°41'612.9
2017-Oct-08 23:30N 38°08' W 011°36'713.1
2017-Oct-08 23:00N 38°13' W 011°31'612.6
2017-Oct-08 22:31N 38°18' W 011°26'612.7
2017-Oct-08 22:00N 38°23' W 011°22'612.8
2017-Oct-08 21:30N 38°29' W 011°17'612.6
2017-Oct-08 21:00N 38°34' W 011°12'612.5
2017-Oct-08 20:30N 38°39' W 011°07'612.4
2017-Oct-08 19:59N 38°44' W 011°02'612.9
2017-Oct-08 19:30N 38°49' W 010°57'612.9
2017-Oct-08 19:00N 38°54' W 010°52'713.0
2017-Oct-08 18:30N 38°59' W 010°48'612.9
2017-Oct-08 18:00N 39°04' W 010°43'612.8
2017-Oct-08 17:31N 39°09' W 010°38'612.8
2017-Oct-08 17:00N 39°15' W 010°33'713.1
2017-Oct-08 16:30N 39°20' W 010°28'612.6
2017-Oct-08 16:00N 39°25' W 010°23'612.4
2017-Oct-08 15:30N 39°30' W 010°19'612.4
2017-Oct-08 15:00N 39°35' W 010°14'712.9
2017-Oct-08 14:30N 39°40' W 010°09'613.0
2017-Oct-08 14:00N 39°45' W 010°03'612.9
2017-Oct-08 13:30N 39°51' W 009°58'612.9
2017-Oct-08 13:00N 39°56' W 009°54'612.8
2017-Oct-08 12:30N 40°01' W 009°49'612.7
2017-Oct-08 12:00N 40°06' W 009°44'712.7
2017-Oct-08 11:29N 40°12' W 009°39'6712.8
2017-Oct-08 06:17N 41°05' W 008°47'312.7
2017-Oct-08 06:00N 41°08' W 008°44'3 6.5
2017-Oct-08 05:30N 41°11' W 008°42'0 0.0
2017-Oct-08 05:00N 41°11' W 008°42'0 0.0
2017-Oct-08 04:30N 41°11' W 008°42'0 0.0
2017-Oct-08 04:00N 41°11' W 008°42'0 0.0
2017-Oct-08 03:30N 41°11' W 008°42'0 0.0
2017-Oct-08 03:00N 41°11' W 008°42'0 0.0
2017-Oct-08 02:30N 41°11' W 008°42'0 0.0
2017-Oct-08 02:00N 41°11' W 008°42'0 0.0
2017-Oct-08 01:30N 41°11' W 008°42'0 0.0
2017-Oct-08 01:00N 41°11' W 008°42'0 0.0
2017-Oct-08 00:30N 41°11' W 008°42'0 0.0
2017-Oct-08 00:00N 41°11' W 008°42'0 0.0
2017-Oct-07 23:30N 41°11' W 008°42'0 0.0
2017-Oct-07 23:00N 41°11' W 008°42'0 0.0
2017-Oct-07 22:30N 41°11' W 008°42'0 0.0
2017-Oct-07 22:00N 41°11' W 008°42'0 0.0
2017-Oct-07 21:30N 41°11' W 008°42'0 0.0
2017-Oct-07 21:00N 41°11' W 008°42'0 0.0
2017-Oct-07 20:30N 41°11' W 008°42'0 0.0
2017-Oct-07 20:00N 41°11' W 008°42'0 0.0
2017-Oct-07 19:30N 41°11' W 008°42'0 0.0
2017-Oct-07 19:00N 41°11' W 008°42'0 0.0
2017-Oct-07 18:30N 41°11' W 008°42'0 0.0
2017-Oct-07 18:00N 41°11' W 008°42'0 0.0
2017-Oct-07 17:30N 41°11' W 008°42'0 0.0
2017-Oct-07 17:00N 41°11' W 008°42'0 0.0
2017-Oct-07 16:29N 41°11' W 008°42'0 0.0
2017-Oct-07 15:59N 41°11' W 008°42'0 0.0
2017-Oct-07 15:29N 41°11' W 008°42'0 0.0
2017-Oct-07 14:59N 41°11' W 008°42'0 0.0
2017-Oct-07 14:29N 41°11' W 008°42'0 0.0
2017-Oct-07 13:59N 41°11' W 008°42'0 0.0
2017-Oct-07 13:29N 41°11' W 008°42'0 0.0
2017-Oct-07 12:59N 41°11' W 008°42'0 0.0
2017-Oct-07 12:29N 41°11' W 008°42'0 0.0
2017-Oct-07 11:59N 41°11' W 008°42'0 0.0
2017-Oct-07 11:29N 41°11' W 008°42'0 0.0
2017-Oct-07 10:59N 41°11' W 008°42'0 0.0
2017-Oct-07 10:29N 41°11' W 008°42'0 0.0
2017-Oct-07 09:59N 41°11' W 008°42'0 0.0
2017-Oct-07 09:29N 41°11' W 008°42'0 0.0
2017-Oct-07 08:59N 41°11' W 008°42'0 0.0
2017-Oct-07 08:29N 41°11' W 008°42'0 0.0
2017-Oct-07 07:59N 41°11' W 008°42'0 0.0
2017-Oct-07 07:29N 41°11' W 008°42'0 0.0
2017-Oct-07 06:59N 41°11' W 008°42'0 0.4
2017-Oct-07 06:30N 41°11' W 008°42'0 0.1
2017-Oct-07 05:58N 41°11' W 008°42'0 0.0
2017-Oct-07 05:28N 41°11' W 008°42'0 0.0
2017-Oct-07 04:58N 41°11' W 008°42'0 0.0
2017-Oct-07 04:28N 41°11' W 008°42'0 0.0
2017-Oct-07 03:58N 41°11' W 008°42'0 0.0
2017-Oct-07 03:25N 41°11' W 008°42'0 0.0
2017-Oct-07 02:58N 41°11' W 008°42'0 0.0
2017-Oct-07 02:25N 41°11' W 008°42'0 0.0
2017-Oct-07 01:58N 41°11' W 008°42'0 0.0
2017-Oct-07 01:28N 41°11' W 008°42'0 0.0
2017-Oct-07 00:58N 41°11' W 008°42'0 0.0
2017-Oct-07 00:28N 41°11' W 008°42'0 0.0
2017-Oct-06 23:58N 41°11' W 008°42'0 0.0
2017-Oct-06 23:28N 41°11' W 008°42'0 0.0
2017-Oct-06 22:58N 41°11' W 008°42'0 0.0
2017-Oct-06 22:28N 41°11' W 008°42'0 0.0
2017-Oct-06 21:58N 41°11' W 008°42'0 0.0
2017-Oct-06 21:25N 41°11' W 008°42'0 0.0
2017-Oct-06 20:58N 41°11' W 008°42'0 0.0
2017-Oct-06 20:28N 41°11' W 008°42'0 0.0
2017-Oct-06 19:58N 41°11' W 008°42'0 0.0
2017-Oct-06 19:28N 41°11' W 008°42'0 0.0
2017-Oct-06 18:58N 41°11' W 008°42'0 0.0
2017-Oct-06 18:22N 41°11' W 008°42'0 0.0
2017-Oct-06 17:59N 41°11' W 008°42'1 2.3
2017-Oct-06 17:30N 41°10' W 008°42'4 5.0
2017-Oct-06 16:41N 41°07' W 008°46'0 0.0
2017-Oct-06 16:17N 41°07' W 008°46'0 0.1
2017-Oct-06 15:50N 41°07' W 008°46'0 0.0
2017-Oct-06 15:14N 41°07' W 008°46'0 0.1
2017-Oct-06 13:38N 41°07' W 008°46'0 0.0
2017-Oct-06 13:29N 41°07' W 008°46'0 0.0
2017-Oct-06 12:59N 41°07' W 008°46'0 0.0
2017-Oct-06 11:28N 41°07' W 008°46'0 0.0
2017-Oct-06 10:55N 41°07' W 008°46'0 0.0
2017-Oct-06 07:58N 41°07' W 008°46'0 0.2
2017-Oct-06 07:25N 41°07' W 008°46'4 7.7
2017-Oct-06 06:55N 41°04' W 008°49'1111.2
2017-Oct-06 05:54N 40°54' W 008°57'2011.3
2017-Oct-06 04:08N 40°38' W 009°12'311.1
2017-Oct-06 03:54N 40°36' W 009°14'2111.5
2017-Oct-06 02:05N 40°19' W 009°31'111.6
2017-Oct-06 02:00N 40°19' W 009°32'811.6
2017-Oct-06 01:17N 40°12' W 009°38'311.6
2017-Oct-06 01:00N 40°09' W 009°41'911.7
2017-Oct-06 00:16N 40°03' W 009°47'311.5
2017-Oct-06 00:00N 40°00' W 009°50'611.5
2017-Oct-05 23:30N 39°55' W 009°54'611.3
2017-Oct-05 23:00N 39°51' W 009°58'611.8
2017-Oct-05 22:30N 39°46' W 010°03'611.7
2017-Oct-05 21:59N 39°41' W 010°08'611.9
2017-Oct-05 21:30N 39°36' W 010°12'611.6
2017-Oct-05 21:00N 39°32' W 010°16'611.4
2017-Oct-05 20:30N 39°27' W 010°21'611.2
2017-Oct-05 19:59N 39°22' W 010°25'1711.2
2017-Oct-05 18:26N 39°08' W 010°38'511.1
2017-Oct-05 18:00N 39°04' W 010°41'611.2
2017-Oct-05 17:26N 38°59' W 010°47'20312.2
2017-Oct-05 00:49N 36°16' W 013°19'612.4
2017-Oct-05 00:21N 36°12' W 013°24'412.6
2017-Oct-05 00:00N 36°08' W 013°27'612.4
2017-Oct-04 23:30N 36°03' W 013°31'612.0
2017-Oct-04 23:00N 35°58' W 013°36'  

Dump ship's entire track history